createdAt,value
2017-05-08T00:00:59.667Z,0
2017-05-08T00:02:09.264Z,0
2017-05-08T00:03:19.182Z,0
2017-05-08T00:04:29.078Z,0
2017-05-08T00:05:39.637Z,0
2017-05-08T00:06:49.834Z,0
2017-05-08T00:08:00.041Z,0
2017-05-08T00:09:09.956Z,0
2017-05-08T00:10:19.859Z,0
2017-05-08T00:11:30.394Z,0
2017-05-08T00:12:40.299Z,0
2017-05-08T00:13:49.900Z,0
2017-05-08T00:14:59.488Z,0
2017-05-08T00:16:09.095Z,0
2017-05-08T00:17:19.456Z,0
2017-05-08T00:18:29.666Z,0
2017-05-08T00:19:39.593Z,0
2017-05-08T00:20:49.500Z,0
2017-05-08T00:21:59.401Z,0
2017-05-08T00:23:09.456Z,0
2017-05-08T00:24:19.364Z,0
2017-05-08T00:25:29.263Z,0
2017-05-08T00:26:39.170Z,0
2017-05-08T00:27:49.388Z,0
2017-05-08T00:28:59.443Z,0
2017-05-08T00:30:08.738Z,0
2017-05-08T00:31:18.953Z,0
2017-05-08T00:32:28.567Z,0
2017-05-08T00:33:38.473Z,0
2017-05-08T00:34:48.540Z,0
2017-05-08T00:35:58.440Z,0
2017-05-08T00:37:08.643Z,0
2017-05-08T00:38:18.257Z,0
2017-05-08T00:39:28.160Z,0
2017-05-08T00:40:38.103Z,0
2017-05-08T00:41:48.304Z,0
2017-05-08T00:42:57.632Z,0
2017-05-08T00:44:07.552Z,0
2017-05-08T00:45:17.453Z,0
2017-05-08T00:46:27.507Z,0
2017-05-08T00:47:37.724Z,0
2017-05-08T00:48:47.961Z,0
2017-05-08T00:49:57.876Z,0
2017-05-08T00:51:08.087Z,0
2017-05-08T00:52:17.522Z,0
2017-05-08T00:53:27.122Z,0
2017-05-08T00:54:37.020Z,0
2017-05-08T00:55:47.236Z,0
2017-05-08T00:56:57.444Z,0
2017-05-08T00:58:07.999Z,0
2017-05-08T00:59:17.608Z,0
2017-05-08T01:00:27.819Z,0
2017-05-08T01:01:37.727Z,0
2017-05-08T01:02:47.931Z,0
2017-05-08T01:03:57.782Z,0
2017-05-08T01:05:07.383Z,0
2017-05-08T01:06:17.599Z,0
2017-05-08T01:07:27.815Z,0
2017-05-08T01:08:37.727Z,0
2017-05-08T01:09:47.886Z,0
2017-05-08T01:10:57.781Z,0
2017-05-08T01:12:07.998Z,0
2017-05-08T01:13:18.204Z,0
2017-05-08T01:14:28.418Z,0
2017-05-08T01:15:38.903Z,0
2017-05-08T01:16:48.801Z,0
2017-05-08T01:17:59.006Z,0
2017-05-08T01:19:08.601Z,0
2017-05-08T01:20:18.804Z,0
2017-05-08T01:21:29.110Z,0
2017-05-08T01:22:39.320Z,0
2017-05-08T01:23:48.919Z,0
2017-05-08T01:24:58.899Z,0
2017-05-08T01:26:08.196Z,0
2017-05-08T01:27:18.260Z,0
2017-05-08T01:28:28.472Z,0
2017-05-08T01:29:38.385Z,0
2017-05-08T01:30:48.597Z,0
2017-05-08T01:31:58.511Z,0
2017-05-08T01:33:08.980Z,0
2017-05-08T01:34:18.591Z,0
2017-05-08T01:35:28.808Z,0
2017-05-08T01:36:38.716Z,0
2017-05-08T01:37:48.935Z,0
2017-05-08T01:38:58.687Z,0
2017-05-08T01:40:08.280Z,0
2017-05-08T01:41:17.890Z,0
2017-05-08T01:42:27.801Z,0
2017-05-08T01:43:37.399Z,0
2017-05-08T01:44:47.462Z,0
2017-05-08T01:45:57.378Z,0
2017-05-08T01:47:07.303Z,0
2017-05-08T01:48:16.906Z,0
2017-05-08T01:49:27.129Z,0
2017-05-08T01:50:37.044Z,0
2017-05-08T01:51:46.961Z,0
2017-05-08T01:52:56.558Z,0
2017-05-08T01:54:06.774Z,0
2017-05-08T01:55:16.678Z,0
2017-05-08T01:56:26.689Z,0
2017-05-08T01:57:36.592Z,0
2017-05-08T01:58:46.830Z,0
2017-05-08T01:59:56.445Z,0
2017-05-08T02:01:06.668Z,0
2017-05-08T02:02:16.406Z,0
2017-05-08T02:03:25.696Z,0
2017-05-08T02:04:35.599Z,0
2017-05-08T02:05:45.831Z,0
2017-05-08T02:06:56.048Z,0
2017-05-08T02:08:06.098Z,0
2017-05-08T02:09:16.319Z,0
2017-05-08T02:10:26.216Z,0
2017-05-08T02:11:36.445Z,0
2017-05-08T02:12:46.095Z,0
2017-05-08T02:13:55.695Z,0
2017-05-08T02:15:05.595Z,0
2017-05-08T02:16:15.799Z,0
2017-05-08T02:17:25.394Z,0
2017-05-08T02:18:35.293Z,0
2017-05-08T02:19:45.203Z,0
2017-05-08T02:20:55.101Z,0
2017-05-08T02:22:04.712Z,0
2017-05-08T02:23:14.920Z,0
2017-05-08T02:24:25.138Z,0
2017-05-08T02:25:35.449Z,0
2017-05-08T02:26:45.657Z,0
2017-05-08T02:27:55.269Z,0
2017-05-08T02:29:04.875Z,0
2017-05-08T02:30:14.464Z,0
2017-05-08T02:31:24.361Z,0
2017-05-08T02:32:34.268Z,0
2017-05-08T02:33:44.479Z,0
2017-05-08T02:34:54.378Z,0
2017-05-08T02:36:03.676Z,0
2017-05-08T02:37:13.984Z,0
2017-05-08T02:38:24.192Z,0
2017-05-08T02:39:34.403Z,0
2017-05-08T02:40:44.308Z,0
2017-05-08T02:41:53.898Z,0
2017-05-08T02:43:04.406Z,0
2017-05-08T02:44:14.629Z,0
2017-05-08T02:45:24.856Z,0
2017-05-08T02:46:34.453Z,0
2017-05-08T02:47:43.741Z,0
2017-05-08T02:48:54.122Z,0
2017-05-08T02:50:04.031Z,0
2017-05-08T02:51:13.930Z,0
2017-05-08T02:52:24.137Z,0
2017-05-08T02:53:34.046Z,0
2017-05-08T02:54:44.057Z,0
2017-05-08T02:55:54.290Z,0
2017-05-08T02:57:03.925Z,0
2017-05-08T02:58:13.835Z,0
2017-05-08T02:59:24.048Z,0
2017-05-08T03:00:34.570Z,0
2017-05-08T03:01:44.790Z,0
2017-05-08T03:02:54.088Z,0
2017-05-08T03:04:04.001Z,0
2017-05-08T03:05:14.209Z,0
2017-05-08T03:06:23.952Z,0
2017-05-08T03:07:33.859Z,0
2017-05-08T03:08:44.067Z,0
2017-05-08T03:09:54.280Z,0
2017-05-08T03:11:04.181Z,0
2017-05-08T03:12:13.773Z,0
2017-05-08T03:13:23.690Z,0
2017-05-08T03:14:33.599Z,0
2017-05-08T03:15:43.849Z,0
2017-05-08T03:16:53.449Z,0
2017-05-08T03:18:03.717Z,0
2017-05-08T03:19:13.965Z,0
2017-05-08T03:20:24.175Z,0
2017-05-08T03:21:34.374Z,0
2017-05-08T03:22:44.589Z,0
2017-05-08T03:23:54.848Z,0
2017-05-08T03:25:04.760Z,0
2017-05-08T03:26:14.966Z,0
2017-05-08T03:27:24.867Z,0
2017-05-08T03:28:34.473Z,0
2017-05-08T03:29:44.482Z,0
2017-05-08T03:30:54.676Z,0
2017-05-08T03:32:04.272Z,0
2017-05-08T03:33:13.872Z,0
2017-05-08T03:34:24.088Z,0
2017-05-08T03:35:33.628Z,0
2017-05-08T03:36:43.530Z,0
2017-05-08T03:37:53.780Z,0
2017-05-08T03:39:03.999Z,0
2017-05-08T03:40:13.600Z,0
2017-05-08T03:41:23.747Z,0
2017-05-08T03:42:33.954Z,0
2017-05-08T03:43:43.853Z,0
2017-05-08T03:44:53.751Z,0
2017-05-08T03:46:03.643Z,0
2017-05-08T03:47:13.345Z,0
2017-05-08T03:48:23.559Z,0
2017-05-08T03:49:33.170Z,0
2017-05-08T03:50:43.381Z,0
2017-05-08T03:51:53.296Z,0
2017-05-08T03:53:03.810Z,0
2017-05-08T03:54:13.725Z,0
2017-05-08T03:55:23.644Z,0
2017-05-08T03:56:33.558Z,0
2017-05-08T03:57:43.158Z,0
2017-05-08T03:58:53.408Z,0
2017-05-08T04:00:03.321Z,0
2017-05-08T04:01:13.543Z,0
2017-05-08T04:02:23.455Z,0
2017-05-08T04:03:33.671Z,0
2017-05-08T04:04:44.236Z,0
2017-05-08T04:05:54.144Z,0
2017-05-08T04:07:04.380Z,0
2017-05-08T04:08:14.282Z,0
2017-05-08T04:09:24.192Z,0
2017-05-08T04:10:34.709Z,0
2017-05-08T04:11:44.360Z,0
2017-05-08T04:12:53.957Z,0
2017-05-08T04:14:04.167Z,0
2017-05-08T04:15:14.067Z,0
2017-05-08T04:16:24.331Z,0
2017-05-08T04:17:33.926Z,0
2017-05-08T04:18:44.156Z,0
2017-05-08T04:19:54.077Z,0
2017-05-08T04:21:04.291Z,0
2017-05-08T04:22:14.539Z,0
2017-05-08T04:23:24.767Z,0
2017-05-08T04:24:34.992Z,0
2017-05-08T04:25:44.289Z,0
2017-05-08T04:26:54.565Z,0
2017-05-08T04:28:04.477Z,0
2017-05-08T04:29:14.718Z,0
2017-05-08T04:30:24.333Z,0
2017-05-08T04:31:34.560Z,0
2017-05-08T04:32:43.948Z,0
2017-05-08T04:33:54.483Z,0
2017-05-08T04:35:04.402Z,0
2017-05-08T04:36:14.624Z,0
2017-05-08T04:37:24.540Z,0
2017-05-08T04:38:34.463Z,0
2017-05-08T04:39:44.985Z,0
2017-05-08T04:40:54.588Z,0
2017-05-08T04:42:04.813Z,0
2017-05-08T04:43:14.128Z,0
2017-05-08T04:44:23.761Z,0
2017-05-08T04:45:33.404Z,0
2017-05-08T04:46:43.019Z,0
2017-05-08T04:47:52.658Z,0
2017-05-08T04:49:02.577Z,0
2017-05-08T04:50:12.615Z,0
2017-05-08T04:51:22.532Z,0
2017-05-08T04:52:32.461Z,0
2017-05-08T04:53:41.462Z,0
2017-05-08T04:54:51.102Z,0
2017-05-08T04:56:00.422Z,0
2017-05-08T04:57:10.014Z,0
2017-05-08T04:58:20.235Z,0
2017-05-08T04:59:30.143Z,0
2017-05-08T05:00:39.441Z,0
2017-05-08T05:01:49.342Z,0
2017-05-08T05:02:59.519Z,0
2017-05-08T05:04:09.769Z,0
2017-05-08T05:05:19.369Z,0
2017-05-08T05:06:29.605Z,0
2017-05-08T05:07:39.537Z,0
2017-05-08T05:08:50.089Z,0
2017-05-08T05:10:00.334Z,0
2017-05-08T05:11:10.619Z,0
2017-05-08T05:12:20.849Z,0
2017-05-08T05:13:30.746Z,0
2017-05-08T05:14:41.117Z,0
2017-05-08T05:15:50.739Z,0
2017-05-08T05:17:00.666Z,0
2017-05-08T05:18:10.895Z,0
2017-05-08T05:19:20.815Z,0
2017-05-08T05:20:30.965Z,0
2017-05-08T05:21:40.560Z,0
2017-05-08T05:22:50.771Z,0
2017-05-08T05:24:00.995Z,0
2017-05-08T05:25:10.283Z,0
2017-05-08T05:26:20.653Z,0
2017-05-08T05:27:30.860Z,0
2017-05-08T05:28:41.071Z,0
2017-05-08T05:29:50.969Z,0
2017-05-08T05:31:01.176Z,0
2017-05-08T05:32:11.226Z,0
2017-05-08T05:33:20.814Z,0
2017-05-08T05:34:30.713Z,0
2017-05-08T05:35:40.626Z,0
2017-05-08T05:36:50.224Z,0
2017-05-08T05:38:00.437Z,5
2017-05-08T05:39:10.050Z,5
2017-05-08T05:40:19.954Z,5
2017-05-08T05:41:30.216Z,5
2017-05-08T05:42:40.141Z,5
2017-05-08T05:43:50.606Z,5
2017-05-08T05:45:00.204Z,5
2017-05-08T05:46:09.799Z,5
2017-05-08T05:47:19.710Z,5
2017-05-08T05:48:29.638Z,5
2017-05-08T05:49:39.803Z,5
2017-05-08T05:50:50.390Z,5
2017-05-08T05:52:00.290Z,5
2017-05-08T05:53:10.502Z,5
2017-05-08T05:54:20.417Z,5
2017-05-08T05:55:30.309Z,5
2017-05-08T05:56:40.224Z,5
2017-05-08T05:57:50.119Z,5
2017-05-08T05:58:59.721Z,5
2017-05-08T06:00:09.633Z,5
2017-05-08T06:01:20.009Z,5
2017-05-08T06:02:30.226Z,5
2017-05-08T06:03:40.432Z,5
2017-05-08T06:04:50.335Z,5
2017-05-08T06:06:00.249Z,5
2017-05-08T06:07:10.761Z,5
2017-05-08T06:08:20.975Z,5
2017-05-08T06:09:31.196Z,5
2017-05-08T06:10:41.410Z,5
2017-05-08T06:11:51.012Z,5
2017-05-08T06:13:01.582Z,5
2017-05-08T06:14:11.790Z,5
2017-05-08T06:15:21.690Z,5
2017-05-08T06:16:31.590Z,5
2017-05-08T06:17:41.180Z,5
2017-05-08T06:18:50.935Z,5
2017-05-08T06:20:01.161Z,5
2017-05-08T06:21:11.371Z,5
2017-05-08T06:22:21.280Z,5
2017-05-08T06:23:31.494Z,10
2017-05-08T06:24:41.452Z,10
2017-05-08T06:25:51.044Z,10
2017-05-08T06:27:01.250Z,10
2017-05-08T06:28:11.463Z,10
2017-05-08T06:29:21.710Z,10
2017-05-08T06:30:31.877Z,10
2017-05-08T06:31:41.490Z,10
2017-05-08T06:32:51.699Z,10
2017-05-08T06:34:01.922Z,10
2017-05-08T06:35:11.534Z,10
2017-05-08T06:36:21.546Z,10
2017-05-08T06:37:31.463Z,10
2017-05-08T06:38:41.075Z,5
2017-05-08T06:39:51.298Z,10
2017-05-08T06:41:01.510Z,10
2017-05-08T06:42:11.880Z,10
2017-05-08T06:43:22.100Z,10
2017-05-08T06:44:32.316Z,10
2017-05-08T06:45:42.547Z,10
2017-05-08T06:46:52.453Z,5
2017-05-08T06:48:02.307Z,10
2017-05-08T06:49:12.221Z,10
2017-05-08T06:50:22.466Z,10
2017-05-08T06:51:32.692Z,10
2017-05-08T06:52:42.604Z,10
2017-05-08T06:53:52.656Z,10
2017-05-08T06:55:02.575Z,15
2017-05-08T06:56:12.491Z,15
2017-05-08T06:57:22.099Z,15
2017-05-08T06:58:32.328Z,15
2017-05-08T06:59:42.694Z,15
2017-05-08T07:00:52.610Z,15
2017-05-08T07:02:02.215Z,15
2017-05-08T07:03:12.459Z,20
2017-05-08T07:04:22.378Z,20
2017-05-08T07:05:32.747Z,15
2017-05-08T07:06:42.963Z,15
2017-05-08T07:07:52.571Z,15
2017-05-08T07:09:02.186Z,15
2017-05-08T07:10:12.099Z,15
2017-05-08T07:11:21.947Z,15
2017-05-08T07:12:32.160Z,15
2017-05-08T07:13:42.086Z,20
2017-05-08T07:14:51.708Z,20
2017-05-08T07:16:01.611Z,25
2017-05-08T07:17:11.878Z,25
2017-05-08T07:18:21.490Z,25
2017-05-08T07:19:31.405Z,20
2017-05-08T07:20:41.008Z,25
2017-05-08T07:21:50.937Z,25
2017-05-08T07:23:01.187Z,25
2017-05-08T07:24:11.451Z,35
2017-05-08T07:25:21.365Z,35
2017-05-08T07:26:31.275Z,35
2017-05-08T07:27:40.875Z,35
2017-05-08T07:28:50.836Z,35
2017-05-08T07:30:00.751Z,50
2017-05-08T07:31:10.369Z,60
2017-05-08T07:32:20.287Z,45
2017-05-08T07:33:30.201Z,40
2017-05-08T07:34:40.734Z,50
2017-05-08T07:35:50.642Z,85
2017-05-08T07:37:00.248Z,80
2017-05-08T07:38:10.482Z,35
2017-05-08T07:39:20.395Z,30
2017-05-08T07:40:30.976Z,30
2017-05-08T07:41:41.204Z,30
2017-05-08T07:42:51.427Z,35
2017-05-08T07:44:01.039Z,35
2017-05-08T07:45:10.959Z,35
2017-05-08T07:46:21.038Z,40
2017-05-08T07:47:30.639Z,40
2017-05-08T07:48:40.261Z,40
2017-05-08T07:49:49.878Z,40
2017-05-08T07:50:59.483Z,40
2017-05-08T07:52:09.387Z,35
2017-05-08T07:53:19.603Z,35
2017-05-08T07:54:29.517Z,35
2017-05-08T07:55:39.743Z,35
2017-05-08T07:56:49.045Z,35
2017-05-08T07:57:58.796Z,40
2017-05-08T07:59:09.011Z,40
2017-05-08T08:00:18.618Z,40
2017-05-08T08:01:28.538Z,45
2017-05-08T08:02:38.763Z,40
2017-05-08T08:03:48.968Z,40
2017-05-08T08:04:58.581Z,35
2017-05-08T08:06:08.183Z,35
2017-05-08T08:07:18.090Z,35
2017-05-08T08:08:27.702Z,40
2017-05-08T08:09:37.715Z,40
2017-05-08T08:10:47.312Z,40
2017-05-08T08:11:57.221Z,40
2017-05-08T08:13:07.137Z,40
2017-05-08T08:14:17.360Z,35
2017-05-08T08:15:26.754Z,30
2017-05-08T08:16:36.051Z,35
2017-05-08T08:17:46.271Z,35
2017-05-08T08:18:55.575Z,40
2017-05-08T08:20:05.486Z,40
2017-05-08T08:21:15.557Z,40
2017-05-08T08:22:25.471Z,45
2017-05-08T08:23:35.094Z,40
2017-05-08T08:24:45.322Z,40
2017-05-08T08:25:54.312Z,35
2017-05-08T08:27:04.375Z,35
2017-05-08T08:28:14.320Z,35
2017-05-08T08:29:24.238Z,40
2017-05-08T08:30:34.481Z,40
2017-05-08T08:31:44.719Z,35
2017-05-08T08:32:54.421Z,35
2017-05-08T08:34:04.039Z,35
2017-05-08T08:35:13.649Z,35
2017-05-08T08:36:23.584Z,35
2017-05-08T08:37:33.493Z,40
2017-05-08T08:38:43.698Z,40
2017-05-08T08:39:53.309Z,40
2017-05-08T08:41:02.620Z,40
2017-05-08T08:42:12.522Z,40
2017-05-08T08:43:22.501Z,40
2017-05-08T08:44:32.103Z,40
2017-05-08T08:45:41.710Z,40
2017-05-08T08:46:51.941Z,40
2017-05-08T08:48:02.172Z,40
2017-05-08T08:49:12.081Z,35
2017-05-08T08:50:21.978Z,35
2017-05-08T08:51:31.904Z,35
2017-05-08T08:52:42.125Z,35
2017-05-08T08:53:52.039Z,35
2017-05-08T08:55:01.969Z,35
2017-05-08T08:56:11.888Z,35
2017-05-08T08:57:21.500Z,35
2017-05-08T08:58:31.104Z,35
2017-05-08T08:59:41.030Z,40
2017-05-08T09:00:50.669Z,40
2017-05-08T09:02:00.218Z,40
2017-05-08T09:03:09.842Z,40
2017-05-08T09:04:19.757Z,45
2017-05-08T09:05:29.684Z,40
2017-05-08T09:06:39.300Z,40
2017-05-08T09:07:49.483Z,40
2017-05-08T09:08:59.300Z,40
2017-05-08T09:10:09.526Z,40
2017-05-08T09:11:19.744Z,35
2017-05-08T09:12:29.360Z,40
2017-05-08T09:13:39.570Z,40
2017-05-08T09:14:48.857Z,40
2017-05-08T09:15:58.760Z,40
2017-05-08T09:17:08.384Z,45
2017-05-08T09:18:18.612Z,45
2017-05-08T09:19:29.129Z,45
2017-05-08T09:20:39.039Z,45
2017-05-08T09:21:48.953Z,45
2017-05-08T09:22:58.574Z,45
2017-05-08T09:24:08.795Z,40
2017-05-08T09:25:18.547Z,45
2017-05-08T09:26:27.858Z,50
2017-05-08T09:27:37.461Z,55
2017-05-08T09:28:47.370Z,50
2017-05-08T09:29:57.594Z,50
2017-05-08T09:31:07.802Z,45
2017-05-08T09:32:17.718Z,45
2017-05-08T09:33:26.710Z,45
2017-05-08T09:34:36.006Z,40
2017-05-08T09:35:45.922Z,35
2017-05-08T09:36:55.938Z,35
2017-05-08T09:38:05.553Z,40
2017-05-08T09:39:15.475Z,45
2017-05-08T09:40:25.700Z,50
2017-05-08T09:41:35.317Z,45
2017-05-08T09:42:45.481Z,45
2017-05-08T09:43:55.396Z,45
2017-05-08T09:45:05.007Z,50
2017-05-08T09:46:14.942Z,50
2017-05-08T09:47:25.185Z,50
2017-05-08T09:48:34.645Z,60
2017-05-08T09:49:44.900Z,60
2017-05-08T09:50:54.813Z,65
2017-05-08T09:52:04.101Z,65
2017-05-08T09:53:14.314Z,60
2017-05-08T09:54:24.326Z,55
2017-05-08T09:55:34.545Z,50
2017-05-08T09:56:44.468Z,55
2017-05-08T09:57:54.385Z,55
2017-05-08T09:59:03.997Z,55
2017-05-08T10:00:14.168Z,55
2017-05-08T10:01:24.078Z,50
2017-05-08T10:02:34.296Z,45
2017-05-08T10:03:43.910Z,50
2017-05-08T10:04:53.816Z,50
2017-05-08T10:06:03.728Z,45
2017-05-08T10:07:13.958Z,45
2017-05-08T10:08:23.874Z,45
2017-05-08T10:09:34.476Z,50
2017-05-08T10:10:43.790Z,50
2017-05-08T10:11:53.346Z,50
2017-05-08T10:13:03.567Z,50
2017-05-08T10:14:13.804Z,50
2017-05-08T10:15:23.709Z,40
2017-05-08T10:16:33.923Z,40
2017-05-08T10:17:43.937Z,40
2017-05-08T10:18:53.843Z,35
2017-05-08T10:20:03.762Z,35
2017-05-08T10:21:13.980Z,35
2017-05-08T10:22:23.279Z,35
2017-05-08T10:23:32.883Z,35
2017-05-08T10:24:43.105Z,35
2017-05-08T10:25:52.730Z,35
2017-05-08T10:27:02.638Z,40
2017-05-08T10:28:12.251Z,40
2017-05-08T10:29:22.212Z,35
2017-05-08T10:30:32.138Z,35
2017-05-08T10:31:42.062Z,30
2017-05-08T10:32:51.976Z,35
2017-05-08T10:34:01.595Z,35
2017-05-08T10:35:11.408Z,40
2017-05-08T10:36:21.309Z,40
2017-05-08T10:37:31.514Z,40
2017-05-08T10:38:41.123Z,40
2017-05-08T10:39:50.742Z,35
2017-05-08T10:41:01.117Z,35
2017-05-08T10:42:11.354Z,40
2017-05-08T10:43:21.569Z,40
2017-05-08T10:44:31.796Z,45
2017-05-08T10:45:42.029Z,45
2017-05-08T10:46:51.763Z,45
2017-05-08T10:48:01.678Z,40
2017-05-08T10:49:11.589Z,40
2017-05-08T10:50:21.502Z,35
2017-05-08T10:51:31.719Z,30
2017-05-08T10:52:41.788Z,30
2017-05-08T10:53:52.028Z,35
2017-05-08T10:55:01.931Z,40
2017-05-08T10:56:12.149Z,40
2017-05-08T10:57:22.376Z,40
2017-05-08T10:58:32.391Z,40
2017-05-08T10:59:41.991Z,40
2017-05-08T11:00:51.589Z,40
2017-05-08T11:02:01.822Z,40
2017-05-08T11:03:11.749Z,40
2017-05-08T11:04:21.963Z,40
2017-05-08T11:05:31.292Z,50
2017-05-08T11:06:41.208Z,55
2017-05-08T11:07:50.820Z,65
2017-05-08T11:09:01.041Z,70
2017-05-08T11:10:10.945Z,70
2017-05-08T11:11:20.561Z,65
2017-05-08T11:12:30.466Z,65
2017-05-08T11:13:40.073Z,65
2017-05-08T11:14:49.993Z,60
2017-05-08T11:15:59.698Z,55
2017-05-08T11:17:09.302Z,50
2017-05-08T11:18:19.225Z,50
2017-05-08T11:19:29.463Z,50
2017-05-08T11:20:39.688Z,45
2017-05-08T11:21:49.558Z,45
2017-05-08T11:22:59.154Z,40
2017-05-08T11:24:08.771Z,45
2017-05-08T11:25:19.013Z,50
2017-05-08T11:26:29.240Z,45
2017-05-08T11:27:39.834Z,35
2017-05-08T11:28:48.829Z,35
2017-05-08T11:29:59.046Z,40
2017-05-08T11:31:08.651Z,45
2017-05-08T11:32:18.263Z,50
2017-05-08T11:33:28.859Z,45
2017-05-08T11:34:39.073Z,40
2017-05-08T11:35:48.366Z,40
2017-05-08T11:36:57.967Z,40
2017-05-08T11:38:07.623Z,40
2017-05-08T11:39:17.583Z,40
2017-05-08T11:40:27.794Z,35
2017-05-08T11:41:37.710Z,35
2017-05-08T11:42:47.630Z,30
2017-05-08T11:43:57.246Z,30
2017-05-08T11:45:07.477Z,35
2017-05-08T11:46:16.474Z,35
2017-05-08T11:47:26.377Z,40
2017-05-08T11:48:36.295Z,40
2017-05-08T11:49:46.207Z,40
2017-05-08T11:50:55.963Z,35
2017-05-08T11:52:05.882Z,30
2017-05-08T11:53:15.796Z,35
2017-05-08T11:54:26.012Z,50
2017-05-08T11:55:36.235Z,65
2017-05-08T11:56:46.454Z,65
2017-05-08T11:57:56.371Z,60
2017-05-08T11:59:06.286Z,55
2017-05-08T12:00:16.211Z,50
2017-05-08T12:01:25.826Z,50
2017-05-08T12:02:36.399Z,55
2017-05-08T12:03:46.344Z,55
2017-05-08T12:04:56.261Z,55
2017-05-08T12:06:06.496Z,55
2017-05-08T12:07:16.734Z,55
2017-05-08T12:08:26.793Z,50
2017-05-08T12:09:36.095Z,45
2017-05-08T12:10:46.020Z,40
2017-05-08T12:11:55.622Z,40
2017-05-08T12:13:05.245Z,35
2017-05-08T12:14:15.264Z,35
2017-05-08T12:15:25.482Z,30
2017-05-08T12:16:35.390Z,30
2017-05-08T12:17:44.698Z,30
2017-05-08T12:18:54.308Z,30
2017-05-08T12:20:03.701Z,30
2017-05-08T12:21:13.306Z,25
2017-05-08T12:22:22.920Z,25
2017-05-08T12:23:32.826Z,25
2017-05-08T12:24:41.850Z,20
2017-05-08T12:25:52.081Z,20
2017-05-08T12:27:02.041Z,20
2017-05-08T12:28:11.695Z,20
2017-05-08T12:29:21.924Z,15
2017-05-08T12:30:31.228Z,15
2017-05-08T12:31:41.753Z,15
2017-05-08T12:32:51.671Z,15
2017-05-08T12:34:01.279Z,15
2017-05-08T12:35:10.888Z,15
2017-05-08T12:36:20.800Z,15
2017-05-08T12:37:31.321Z,10
2017-05-08T12:38:41.241Z,10
2017-05-08T12:39:51.469Z,10
2017-05-08T12:41:01.397Z,10
2017-05-08T12:42:10.700Z,10
2017-05-08T12:43:20.866Z,10
2017-05-08T12:44:30.788Z,10
2017-05-08T12:45:40.699Z,10
2017-05-08T12:46:50.916Z,10
2017-05-08T12:48:00.840Z,10
2017-05-08T12:49:11.060Z,10
2017-05-08T12:50:20.985Z,10
2017-05-08T12:51:31.195Z,10
2017-05-08T12:52:41.409Z,10
2017-05-08T12:53:51.318Z,10
2017-05-08T12:55:01.575Z,10
2017-05-08T12:56:11.190Z,15
2017-05-08T12:57:20.803Z,20
2017-05-08T12:58:30.721Z,30
2017-05-08T12:59:39.713Z,30
2017-05-08T13:00:49.471Z,25
2017-05-08T13:01:59.680Z,20
2017-05-08T13:03:09.288Z,15
2017-05-08T13:04:18.889Z,15
2017-05-08T13:05:29.108Z,15
2017-05-08T13:06:39.629Z,15
2017-05-08T13:07:49.839Z,15
2017-05-08T13:08:59.439Z,15
2017-05-08T13:10:09.043Z,20
2017-05-08T13:11:19.267Z,20
2017-05-08T13:12:29.746Z,20
2017-05-08T13:13:39.978Z,20
2017-05-08T13:14:50.221Z,20
2017-05-08T13:16:00.447Z,20
2017-05-08T13:17:10.366Z,20
2017-05-08T13:18:20.222Z,20
2017-05-08T13:19:30.126Z,20
2017-05-08T13:20:40.029Z,20
2017-05-08T13:21:49.953Z,20
2017-05-08T13:22:59.866Z,20
2017-05-08T13:24:10.607Z,20
2017-05-08T13:25:20.216Z,20
2017-05-08T13:26:30.425Z,20
2017-05-08T13:27:40.661Z,20
2017-05-08T13:28:50.580Z,15
2017-05-08T13:30:00.797Z,20
2017-05-08T13:31:10.722Z,20
2017-05-08T13:32:20.333Z,20
2017-05-08T13:33:29.979Z,20
2017-05-08T13:34:39.896Z,20
2017-05-08T13:35:50.367Z,20
2017-05-08T13:36:59.973Z,20
2017-05-08T13:38:09.585Z,20
2017-05-08T13:39:19.490Z,20
2017-05-08T13:40:29.725Z,20
2017-05-08T13:41:39.795Z,20
2017-05-08T13:42:50.016Z,20
2017-05-08T13:44:00.244Z,20
2017-05-08T13:45:09.864Z,20
2017-05-08T13:46:19.465Z,25
2017-05-08T13:47:29.628Z,25
2017-05-08T13:48:39.248Z,25
2017-05-08T13:49:49.158Z,25
2017-05-08T13:50:58.756Z,15
2017-05-08T13:52:08.363Z,15
2017-05-08T13:53:18.226Z,10
2017-05-08T13:54:28.456Z,10
2017-05-08T13:55:38.092Z,10
2017-05-08T13:56:48.004Z,10
2017-05-08T13:57:57.940Z,10
2017-05-08T13:59:08.001Z,10
2017-05-08T14:00:17.606Z,10
2017-05-08T14:01:27.826Z,10
2017-05-08T14:02:38.052Z,5
2017-05-08T14:03:47.969Z,5
2017-05-08T14:04:57.728Z,5
2017-05-08T14:06:07.634Z,5
2017-05-08T14:07:16.625Z,5
2017-05-08T14:08:26.834Z,5
2017-05-08T14:09:36.440Z,5
2017-05-08T14:10:46.686Z,5
2017-05-08T14:11:56.916Z,5
2017-05-08T14:13:06.829Z,10
2017-05-08T14:14:16.435Z,15
2017-05-08T14:15:26.650Z,15
2017-05-08T14:16:36.808Z,10
2017-05-08T14:17:46.735Z,10
2017-05-08T14:18:56.652Z,10
2017-05-08T14:20:06.568Z,10
2017-05-08T14:21:16.164Z,15
2017-05-08T14:22:26.659Z,20
2017-05-08T14:23:36.263Z,15
2017-05-08T14:24:45.873Z,15
2017-05-08T14:25:55.485Z,10
2017-05-08T14:27:05.115Z,15
2017-05-08T14:28:14.858Z,20
2017-05-08T14:29:24.789Z,20
2017-05-08T14:30:34.408Z,15
2017-05-08T14:31:44.019Z,15
2017-05-08T14:32:54.284Z,20
2017-05-08T14:34:04.453Z,20
2017-05-08T14:35:14.396Z,25
2017-05-08T14:36:24.008Z,20
2017-05-08T14:37:33.989Z,20
2017-05-08T14:38:43.324Z,20
2017-05-08T14:39:53.340Z,20
2017-05-08T14:41:03.306Z,20
2017-05-08T14:42:13.601Z,20
2017-05-08T14:43:23.826Z,25
2017-05-08T14:44:33.452Z,25
2017-05-08T14:45:43.677Z,25
2017-05-08T14:46:53.600Z,25
2017-05-08T14:48:03.823Z,25
2017-05-08T14:49:13.135Z,30
2017-05-08T14:50:23.048Z,25
2017-05-08T14:51:33.259Z,25
2017-05-08T14:52:43.179Z,20
2017-05-08T14:53:52.503Z,20
2017-05-08T14:55:02.706Z,25
2017-05-08T14:56:12.008Z,30
2017-05-08T14:57:21.942Z,35
2017-05-08T14:58:32.160Z,40
2017-05-08T14:59:42.075Z,45
2017-05-08T15:00:51.068Z,45
2017-05-08T15:02:01.287Z,45
2017-05-08T15:03:11.856Z,45
2017-05-08T15:04:21.784Z,45
2017-05-08T15:05:31.689Z,45
2017-05-08T15:06:41.608Z,45
2017-05-08T15:07:51.554Z,45
2017-05-08T15:09:01.419Z,45
2017-05-08T15:10:11.032Z,45
2017-05-08T15:11:21.253Z,50
2017-05-08T15:12:31.160Z,45
2017-05-08T15:13:40.465Z,45
2017-05-08T15:14:49.915Z,45
2017-05-08T15:15:59.842Z,45
2017-05-08T15:17:09.759Z,45
2017-05-08T15:18:20.013Z,50
2017-05-08T15:19:29.643Z,50
2017-05-08T15:20:39.716Z,50
2017-05-08T15:21:49.642Z,55
2017-05-08T15:22:59.254Z,50
2017-05-08T15:24:09.175Z,45
2017-05-08T15:25:18.172Z,40
2017-05-08T15:26:28.152Z,35
2017-05-08T15:27:37.770Z,30
2017-05-08T15:28:47.724Z,25
2017-05-08T15:29:57.641Z,25
2017-05-08T15:31:07.568Z,20
2017-05-08T15:32:17.524Z,15
2017-05-08T15:33:27.745Z,10
2017-05-08T15:34:37.662Z,10
2017-05-08T15:35:47.574Z,10
2017-05-08T15:36:57.814Z,5
2017-05-08T15:38:07.998Z,5
2017-05-08T15:39:18.122Z,5
2017-05-08T15:40:28.044Z,5
2017-05-08T15:41:37.963Z,5
2017-05-08T15:42:47.861Z,10
2017-05-08T15:43:57.594Z,10
2017-05-08T15:45:07.528Z,10
2017-05-08T15:46:17.146Z,15
2017-05-08T15:47:27.064Z,15
2017-05-08T15:48:36.674Z,15
2017-05-08T15:49:47.153Z,15
2017-05-08T15:50:56.474Z,15
2017-05-08T15:52:06.088Z,15
2017-05-08T15:53:15.713Z,15
2017-05-08T15:54:25.931Z,15
2017-05-08T15:55:36.191Z,15
2017-05-08T15:56:45.477Z,15
2017-05-08T15:57:55.385Z,15
2017-05-08T15:59:04.987Z,15
2017-05-08T16:00:14.275Z,15
2017-05-08T16:01:23.990Z,15
2017-05-08T16:02:33.633Z,15
2017-05-08T16:03:43.896Z,15
2017-05-08T16:04:53.560Z,10
2017-05-08T16:06:03.184Z,15
2017-05-08T16:07:13.596Z,10
2017-05-08T16:08:23.815Z,10
2017-05-08T16:09:33.726Z,10
2017-05-08T16:10:43.027Z,10
2017-05-08T16:11:53.253Z,10
2017-05-08T16:13:03.615Z,10
2017-05-08T16:14:13.543Z,10
2017-05-08T16:15:23.444Z,10
2017-05-08T16:16:33.347Z,10
2017-05-08T16:17:43.608Z,15
2017-05-08T16:18:53.625Z,10
2017-05-08T16:20:03.224Z,10
2017-05-08T16:21:12.811Z,15
2017-05-08T16:22:22.717Z,15
2017-05-08T16:23:32.632Z,15
2017-05-08T16:24:42.681Z,15
2017-05-08T16:25:52.592Z,15
2017-05-08T16:27:02.192Z,15
2017-05-08T16:28:11.791Z,15
2017-05-08T16:29:21.387Z,15
2017-05-08T16:30:31.243Z,15
2017-05-08T16:31:41.150Z,15
2017-05-08T16:32:51.359Z,15
2017-05-08T16:34:00.958Z,15
2017-05-08T16:35:10.575Z,15
2017-05-08T16:36:20.826Z,10
2017-05-08T16:37:31.042Z,15
2017-05-08T16:38:41.253Z,15
2017-05-08T16:39:50.554Z,15
2017-05-08T16:41:00.161Z,10
2017-05-08T16:42:10.027Z,10
2017-05-08T16:43:19.635Z,10
2017-05-08T16:44:29.238Z,10
2017-05-08T16:45:39.162Z,10
2017-05-08T16:46:49.067Z,10
2017-05-08T16:47:59.523Z,10
2017-05-08T16:49:09.435Z,10
2017-05-08T16:50:20.081Z,10
2017-05-08T16:51:29.990Z,10